RYR989J EGCC-EIDW
Flight info
| Callsign | RYR989J |
|---|---|
| Flight time | 0h 39m |
| Altitude | 28000 |
| Route | EKLAD Y53 WAL L10 PENIL M144 BAGSO BAGSO3R |
| Aircraft | B738/M-SDE2E3FGHIRWXY/LB1 |
Departure
| Time | 2026-05-04 16:33 |
|---|---|
| Airport | Manchester Airport (EGCC) |
Arrival
| Time | 2026-05-04 17:12 |
|---|---|
| Airport | Dublin Airport (EIDW) |
| Time | Latitude | Longitude | Altitude | Speed | Heading |
|---|---|---|---|---|---|
| 2026-05-04 15:58 | 53.36088 | -2.26793 | 247 ft | 0 kts | 313° |
| 2026-05-04 16:18 | 53.36058 | -2.26737 | 247 ft | 4 kts | 291° |
| 2026-05-04 16:18 | 53.36056 | -2.26696 | 247 ft | 4 kts | 248° |
| 2026-05-04 16:19 | 53.36072 | -2.26646 | 247 ft | 0 kts | 240° |
| 2026-05-04 16:21 | 53.36055 | -2.26679 | 247 ft | 5 kts | 227° |
| 2026-05-04 16:22 | 53.35987 | -2.26727 | 249 ft | 6 kts | 163° |
| 2026-05-04 16:22 | 53.35945 | -2.26709 | 254 ft | 0 kts | 169° |
| 2026-05-04 16:23 | 53.35924 | -2.26702 | 256 ft | 0 kts | 170° |
| 2026-05-04 16:25 | 53.35921 | -2.26702 | 257 ft | 5 kts | 171° |
| 2026-05-04 16:26 | 53.35528 | -2.26706 | 261 ft | 10 kts | 230° |
| 2026-05-04 16:26 | 53.35366 | -2.27043 | 255 ft | 8 kts | 232° |
| 2026-05-04 16:27 | 53.35353 | -2.27069 | 255 ft | 0 kts | 232° |
| 2026-05-04 16:28 | 53.35285 | -2.27190 | 251 ft | 17 kts | 211° |
| 2026-05-04 16:28 | 53.35156 | -2.27247 | 243 ft | 0 kts | 192° |
| 2026-05-04 16:29 | 53.35137 | -2.27254 | 242 ft | 7 kts | 192° |
| 2026-05-04 16:30 | 53.35001 | -2.27331 | 238 ft | 0 kts | 229° |
| 2026-05-04 16:31 | 53.34988 | -2.27360 | 238 ft | 8 kts | 232° |
| 2026-05-04 16:32 | 53.33496 | -2.30671 | 685 ft | 191 kts | 244° |
| 2026-05-04 16:33 | 53.32797 | -2.35004 | 1821 ft | 186 kts | 266° |
| 2026-05-04 16:33 | 53.32691 | -2.39357 | 2733 ft | 192 kts | 283° |
| 2026-05-04 16:34 | 53.33639 | -2.43656 | 3432 ft | 205 kts | 296° |
| 2026-05-04 16:34 | 53.33940 | -2.46038 | 3509 ft | 220 kts | 265° |
| 2026-05-04 16:35 | 53.31550 | -2.52947 | 4164 ft | 240 kts | 237° |
| 2026-05-04 16:35 | 53.29586 | -2.60696 | 4985 ft | 246 kts | 253° |
| 2026-05-04 16:36 | 53.29037 | -2.63478 | 4999 ft | 258 kts | 253° |
| 2026-05-04 16:36 | 53.27858 | -2.69021 | 5162 ft | 247 kts | 250° |
| 2026-05-04 16:37 | 53.26856 | -2.74400 | 5900 ft | 246 kts | 254° |
| 2026-05-04 16:37 | 53.26358 | -2.77187 | 6252 ft | 260 kts | 253° |
| 2026-05-04 16:37 | 53.25999 | -2.83259 | 7940 ft | 270 kts | 289° |
| 2026-05-04 16:38 | 53.27983 | -2.88497 | 9926 ft | 273 kts | 307° |
| 2026-05-04 16:39 | 53.31820 | -2.96878 | 11477 ft | 324 kts | 306° |
| 2026-05-04 16:39 | 53.34587 | -3.03033 | 12974 ft | 339 kts | 306° |
| 2026-05-04 16:40 | 53.37443 | -3.09440 | 14595 ft | 346 kts | 306° |
| 2026-05-04 16:40 | 53.40308 | -3.15939 | 16349 ft | 346 kts | 306° |
| 2026-05-04 16:41 | 53.43099 | -3.22497 | 18172 ft | 345 kts | 305° |
| 2026-05-04 16:41 | 53.47274 | -3.32365 | 20000 ft | 346 kts | 307° |
| 2026-05-04 16:42 | 53.51491 | -3.42338 | 20063 ft | 350 kts | 307° |
| 2026-05-04 16:43 | 53.54303 | -3.49007 | 20073 ft | 350 kts | 307° |
| 2026-05-04 16:43 | 53.57114 | -3.55690 | 20069 ft | 350 kts | 306° |
| 2026-05-04 16:43 | 53.58517 | -3.59036 | 20062 ft | 350 kts | 306° |
| 2026-05-04 16:44 | 53.62015 | -3.73957 | 20084 ft | 354 kts | 275° |
| 2026-05-04 16:45 | 53.62320 | -3.82618 | 20524 ft | 385 kts | 274° |
| 2026-05-04 16:46 | 53.62878 | -3.96448 | 22204 ft | 401 kts | 275° |
| 2026-05-04 16:46 | 53.63251 | -4.05821 | 23668 ft | 400 kts | 275° |
| 2026-05-04 16:47 | 53.63610 | -4.15202 | 24042 ft | 401 kts | 275° |
| 2026-05-04 16:47 | 53.63959 | -4.24543 | 24061 ft | 398 kts | 275° |
| 2026-05-04 16:48 | 53.64443 | -4.37891 | 24053 ft | 369 kts | 275° |
| 2026-05-04 16:48 | 53.64596 | -4.42218 | 24066 ft | 370 kts | 275° |
| 2026-05-04 16:49 | 53.64894 | -4.50806 | 23616 ft | 363 kts | 275° |
| 2026-05-04 16:49 | 53.65181 | -4.59200 | 22884 ft | 358 kts | 275° |
| 2026-05-04 16:50 | 53.65462 | -4.67562 | 22203 ft | 351 kts | 275° |
| 2026-05-04 16:50 | 53.65732 | -4.75712 | 21511 ft | 345 kts | 275° |
| 2026-05-04 16:51 | 53.65991 | -4.83740 | 20847 ft | 340 kts | 275° |
| 2026-05-04 16:51 | 53.66120 | -4.87686 | 20647 ft | 334 kts | 275° |
| 2026-05-04 16:51 | 53.66378 | -4.95443 | 20009 ft | 329 kts | 274° |
| 2026-05-04 16:52 | 53.66629 | -5.03062 | 19373 ft | 326 kts | 274° |
| 2026-05-04 16:52 | 53.66752 | -5.06866 | 19046 ft | 324 kts | 275° |
| 2026-05-04 16:53 | 53.66991 | -5.14432 | 18406 ft | 322 kts | 274° |
| 2026-05-04 16:53 | 53.67319 | -5.25606 | 17444 ft | 314 kts | 274° |
| 2026-05-04 16:54 | 53.67423 | -5.29272 | 17118 ft | 312 kts | 274° |
| 2026-05-04 16:55 | 53.67829 | -5.43701 | 15859 ft | 304 kts | 273° |
| 2026-05-04 16:55 | 53.67956 | -5.50785 | 15232 ft | 301 kts | 265° |
| 2026-05-04 16:56 | 53.67107 | -5.57646 | 14664 ft | 297 kts | 257° |
| 2026-05-04 16:56 | 53.65682 | -5.67756 | 13736 ft | 294 kts | 258° |
| 2026-05-04 16:57 | 53.65236 | -5.71110 | 13399 ft | 293 kts | 258° |
| 2026-05-04 16:57 | 53.64354 | -5.77770 | 12779 ft | 289 kts | 258° |
| 2026-05-04 16:58 | 53.63049 | -5.87575 | 11886 ft | 283 kts | 258° |
| 2026-05-04 16:58 | 53.62618 | -5.90803 | 11583 ft | 282 kts | 258° |
| 2026-05-04 16:59 | 53.61760 | -5.97217 | 10994 ft | 279 kts | 258° |
| 2026-05-04 17:00 | 53.60066 | -6.09798 | 10018 ft | 267 kts | 258° |
| 2026-05-04 17:00 | 53.58837 | -6.18882 | 9143 ft | 265 kts | 259° |
| 2026-05-04 17:01 | 53.58243 | -6.24889 | 8697 ft | 257 kts | 262° |
| 2026-05-04 17:01 | 53.57700 | -6.30802 | 8182 ft | 254 kts | 262° |
| 2026-05-04 17:02 | 53.57150 | -6.36630 | 7669 ft | 251 kts | 261° |
| 2026-05-04 17:02 | 53.56595 | -6.42388 | 7161 ft | 248 kts | 261° |
| 2026-05-04 17:03 | 53.56316 | -6.45251 | 6890 ft | 247 kts | 261° |
| 2026-05-04 17:03 | 53.56039 | -6.48099 | 6633 ft | 246 kts | 261° |
| 2026-05-04 17:03 | 53.55485 | -6.53756 | 6075 ft | 245 kts | 261° |
| 2026-05-04 17:04 | 53.54931 | -6.59352 | 5671 ft | 238 kts | 261° |
| 2026-05-04 17:04 | 53.54275 | -6.64623 | 5427 ft | 225 kts | 243° |
| 2026-05-04 17:05 | 53.51727 | -6.67300 | 5056 ft | 224 kts | 189° |
| 2026-05-04 17:05 | 53.48647 | -6.67757 | 4730 ft | 226 kts | 186° |
| 2026-05-04 17:06 | 53.46264 | -6.65928 | 4645 ft | 184 kts | 107° |
| 2026-05-04 17:06 | 53.45993 | -6.63919 | 4454 ft | 173 kts | 101° |
| 2026-05-04 17:07 | 53.45586 | -6.60118 | 4063 ft | 163 kts | 95° |
| 2026-05-04 17:07 | 53.45496 | -6.58867 | 3891 ft | 163 kts | 94° |
| 2026-05-04 17:07 | 53.45335 | -6.56331 | 3591 ft | 164 kts | 93° |
| 2026-05-04 17:07 | 53.45223 | -6.54455 | 3363 ft | 164 kts | 92° |
| 2026-05-04 17:08 | 53.45112 | -6.52570 | 3136 ft | 155 kts | 92° |
| 2026-05-04 17:08 | 53.44916 | -6.49199 | 2743 ft | 141 kts | 92° |
| 2026-05-04 17:08 | 53.44822 | -6.47555 | 2548 ft | 141 kts | 92° |
| 2026-05-04 17:09 | 53.44729 | -6.45925 | 2368 ft | 141 kts | 92° |
| 2026-05-04 17:09 | 53.44635 | -6.44288 | 2172 ft | 141 kts | 91° |
| 2026-05-04 17:09 | 53.44543 | -6.42673 | 1974 ft | 138 kts | 93° |
| 2026-05-04 17:10 | 53.44361 | -6.39479 | 1598 ft | 136 kts | 92° |
| 2026-05-04 17:10 | 53.44100 | -6.34763 | 1035 ft | 135 kts | 92° |
| 2026-05-04 17:11 | 53.44026 | -6.33229 | 867 ft | 131 kts | 95° |
| 2026-05-04 17:11 | 53.43958 | -6.32182 | 705 ft | 135 kts | 96° |
| 2026-05-04 17:11 | 53.43756 | -6.28662 | 313 ft | 124 kts | 97° |
| 2026-05-04 17:12 | 53.43669 | -6.27246 | 213 ft | 117 kts | 96° |
| 2026-05-04 17:12 | 53.43588 | -6.25690 | 212 ft | 35 kts | 96° |
| 2026-05-04 17:13 | 53.43449 | -6.25009 | 210 ft | 4 kts | 146° |
| 2026-05-04 17:14 | 53.43387 | -6.25195 | 218 ft | 10 kts | 275° |
| 2026-05-04 17:14 | 53.43390 | -6.25269 | 213 ft | 3 kts | 274° |
| 2026-05-04 17:14 | 53.43392 | -6.25298 | 217 ft | 0 kts | 274° |
| 2026-05-04 17:15 | 53.43392 | -6.25303 | 216 ft | 1 kts | 274° |
| 2026-05-04 17:15 | 53.43403 | -6.25537 | 210 ft | 18 kts | 272° |
| 2026-05-04 17:16 | 53.43280 | -6.25597 | 213 ft | 12 kts | 158° |
| 2026-05-04 17:16 | 53.43230 | -6.25215 | 210 ft | 15 kts | 97° |
| 2026-05-04 17:17 | 53.43220 | -6.25028 | 210 ft | 16 kts | 94° |
| 2026-05-04 17:17 | 53.43147 | -6.24622 | 215 ft | 7 kts | 190° |
| 2026-05-04 17:18 | 53.43109 | -6.24633 | 210 ft | 3 kts | 176° |
| 2026-05-04 17:18 | 53.43086 | -6.24634 | 210 ft | 1 kts | 186° |